sensor_id;sensor_type;location;lat;lon;timestamp;pressure;altitude;pressure_sealevel;temperature;humidity
22647;BME280;11490;42.726;23.268;2023-03-01T00:00:38;95700.28;;;7.03;100.00
22647;BME280;11490;42.726;23.268;2023-03-01T00:03:04;95698.22;;;6.92;100.00
22647;BME280;11490;42.726;23.268;2023-03-01T00:05:29;95703.50;;;6.79;100.00
22647;BME280;11490;42.726;23.268;2023-03-01T00:07:54;95673.72;;;6.64;100.00
22647;BME280;11490;42.726;23.268;2023-03-01T00:10:20;95706.78;;;6.81;100.00
22647;BME280;11490;42.726;23.268;2023-03-01T00:12:45;95698.22;;;6.85;100.00
22647;BME280;11490;42.726;23.268;2023-03-01T00:15:11;95697.19;;;6.73;100.00
22647;BME280;11490;42.726;23.268;2023-03-01T00:17:37;95690.88;;;7.01;100.00
22647;BME280;11490;42.726;23.268;2023-03-01T00:20:03;95683.13;;;6.92;100.00
22647;BME280;11490;42.726;23.268;2023-03-01T00:22:28;95680.84;;;6.70;100.00
22647;BME280;11490;42.726;23.268;2023-03-01T00:24:53;95681.28;;;6.80;100.00
22647;BME280;11490;42.726;23.268;2023-03-01T00:27:19;95672.06;;;6.63;100.00
22647;BME280;11490;42.726;23.268;2023-03-01T00:29:44;95674.53;;;6.57;100.00
22647;BME280;11490;42.726;23.268;2023-03-01T00:32:10;95670.84;;;6.58;100.00
22647;BME280;11490;42.726;23.268;2023-03-01T00:34:35;95660.84;;;6.61;100.00
22647;BME280;11490;42.726;23.268;2023-03-01T00:37:00;95651.28;;;6.60;100.00
22647;BME280;11490;42.726;23.268;2023-03-01T00:39:31;95662.88;;;6.58;100.00
22647;BME280;11490;42.726;23.268;2023-03-01T00:41:57;95655.78;;;6.66;100.00
22647;BME280;11490;42.726;23.268;2023-03-01T00:44:22;95650.25;;;6.74;100.00
22647;BME280;11490;42.726;23.268;2023-03-01T00:46:48;95652.09;;;6.60;100.00
22647;BME280;11490;42.726;23.268;2023-03-01T00:49:13;95669.00;;;6.52;100.00
22647;BME280;11490;42.726;23.268;2023-03-01T00:51:39;95669.22;;;6.57;100.00
22647;BME280;11490;42.726;23.268;2023-03-01T00:54:08;95661.28;;;6.64;100.00
22647;BME280;11490;42.726;23.268;2023-03-01T00:56:34;95657.19;;;6.62;100.00
22647;BME280;11490;42.726;23.268;2023-03-01T00:58:59;95654.94;;;6.58;100.00
22647;BME280;11490;42.726;23.268;2023-03-01T01:01:27;95658.25;;;6.87;100.00
22647;BME280;11490;42.726;23.268;2023-03-01T01:04:01;95653.97;;;6.73;100.00
22647;BME280;11490;42.726;23.268;2023-03-01T01:06:30;95671.28;;;6.82;100.00
22647;BME280;11490;42.726;23.268;2023-03-01T01:08:56;95669.25;;;6.71;100.00
22647;BME280;11490;42.726;23.268;2023-03-01T01:11:24;95680.59;;;6.51;100.00
22647;BME280;11490;42.726;23.268;2023-03-01T01:13:50;95671.22;;;6.42;100.00
22647;BME280;11490;42.726;23.268;2023-03-01T01:16:17;95673.66;;;6.50;100.00
22647;BME280;11490;42.726;23.268;2023-03-01T01:18:44;95667.31;;;6.32;100.00
22647;BME280;11490;42.726;23.268;2023-03-01T01:21:13;95662.69;;;6.53;100.00
22647;BME280;11490;42.726;23.268;2023-03-01T01:23:40;95661.88;;;6.60;100.00
22647;BME280;11490;42.726;23.268;2023-03-01T01:26:15;95645.78;;;6.68;100.00
22647;BME280;11490;42.726;23.268;2023-03-01T01:28:41;95628.00;;;6.35;100.00
22647;BME280;11490;42.726;23.268;2023-03-01T01:31:06;95654.88;;;6.19;100.00
22647;BME280;11490;42.726;23.268;2023-03-01T01:33:32;95655.59;;;6.00;100.00
22647;BME280;11490;42.726;23.268;2023-03-01T01:35:58;95649.75;;;6.11;100.00
22647;BME280;11490;42.726;23.268;2023-03-01T01:38:23;95663.41;;;6.21;100.00
22647;BME280;11490;42.726;23.268;2023-03-01T01:40:50;95668.72;;;6.21;100.00
22647;BME280;11490;42.726;23.268;2023-03-01T01:43:28;95681.78;;;6.36;100.00
22647;BME280;11490;42.726;23.268;2023-03-01T01:45:59;95675.69;;;6.35;100.00
22647;BME280;11490;42.726;23.268;2023-03-01T01:48:34;95659.56;;;6.30;100.00
22647;BME280;11490;42.726;23.268;2023-03-01T01:51:07;95667.16;;;6.40;100.00
22647;BME280;11490;42.726;23.268;2023-03-01T01:53:35;95660.63;;;6.42;100.00
22647;BME280;11490;42.726;23.268;2023-03-01T01:56:02;95673.06;;;6.48;100.00
22647;BME280;11490;42.726;23.268;2023-03-01T01:58:29;95665.94;;;6.42;100.00
22647;BME280;11490;42.726;23.268;2023-03-01T02:00:55;95658.59;;;6.44;100.00
22647;BME280;11490;42.726;23.268;2023-03-01T02:03:30;95661.03;;;6.39;100.00
22647;BME280;11490;42.726;23.268;2023-03-01T02:06:41;95659.03;;;6.54;100.00
22647;BME280;11490;42.726;23.268;2023-03-01T02:08:47;95652.47;;;6.37;100.00
22647;BME280;11490;42.726;23.268;2023-03-01T02:11:14;95617.78;;;6.19;100.00
22647;BME280;11490;42.726;23.268;2023-03-01T02:13:40;95635.34;;;6.46;100.00
22647;BME280;11490;42.726;23.268;2023-03-01T02:16:11;95635.38;;;6.60;100.00
22647;BME280;11490;42.726;23.268;2023-03-01T02:18:38;95632.94;;;6.78;100.00
22647;BME280;11490;42.726;23.268;2023-03-01T02:24:29;95628.03;;;6.62;100.00
22647;BME280;11490;42.726;23.268;2023-03-01T02:26:57;95630.06;;;6.60;100.00
22647;BME280;11490;42.726;23.268;2023-03-01T02:29:24;95632.91;;;6.45;100.00
22647;BME280;11490;42.726;23.268;2023-03-01T02:31:51;95637.38;;;6.44;100.00
22647;BME280;11490;42.726;23.268;2023-03-01T02:34:22;95641.91;;;6.70;100.00
22647;BME280;11490;42.726;23.268;2023-03-01T02:36:51;95654.16;;;6.65;100.00
22647;BME280;11490;42.726;23.268;2023-03-01T02:39:22;95642.31;;;6.74;100.00
22647;BME280;11490;42.726;23.268;2023-03-01T02:41:52;95646.16;;;6.51;100.00
22647;BME280;11490;42.726;23.268;2023-03-01T02:44:19;95662.03;;;6.38;100.00
22647;BME280;11490;42.726;23.268;2023-03-01T02:46:51;95655.31;;;6.36;100.00
22647;BME280;11490;42.726;23.268;2023-03-01T02:49:24;95653.47;;;6.43;100.00
22647;BME280;11490;42.726;23.268;2023-03-01T02:55:19;95653.69;;;6.41;100.00
22647;BME280;11490;42.726;23.268;2023-03-01T02:57:45;95637.78;;;6.35;100.00
22647;BME280;11490;42.726;23.268;2023-03-01T03:00:19;95646.31;;;6.30;100.00
22647;BME280;11490;42.726;23.268;2023-03-01T03:02:47;95630.00;;;6.20;100.00
22647;BME280;11490;42.726;23.268;2023-03-01T03:05:16;95649.63;;;6.45;100.00
22647;BME280;11490;42.726;23.268;2023-03-01T03:07:44;95642.28;;;6.47;100.00
22647;BME280;11490;42.726;23.268;2023-03-01T03:10:17;95645.38;;;6.57;100.00
22647;BME280;11490;42.726;23.268;2023-03-01T03:12:49;95647.59;;;6.61;100.00
22647;BME280;11490;42.726;23.268;2023-03-01T03:15:15;95642.31;;;6.61;100.00
22647;BME280;11490;42.726;23.268;2023-03-01T03:17:41;95647.59;;;6.74;100.00
22647;BME280;11490;42.726;23.268;2023-03-01T03:20:10;95650.50;;;6.79;100.00
22647;BME280;11490;42.726;23.268;2023-03-01T03:22:40;95645.19;;;6.79;100.00
22647;BME280;11490;42.726;23.268;2023-03-01T03:25:07;95657.81;;;6.70;100.00
22647;BME280;11490;42.726;23.268;2023-03-01T03:27:40;95658.25;;;6.80;100.00
22647;BME280;11490;42.726;23.268;2023-03-01T03:30:09;95652.09;;;6.67;100.00
22647;BME280;11490;42.726;23.268;2023-03-01T03:32:36;95660.69;;;6.88;100.00
22647;BME280;11490;42.726;23.268;2023-03-01T03:35:03;95658.59;;;6.44;100.00
22647;BME280;11490;42.726;23.268;2023-03-01T03:37:38;95652.44;;;6.24;100.00
22647;BME280;11490;42.726;23.268;2023-03-01T03:40:22;95654.59;;;6.01;100.00
22647;BME280;11490;42.726;23.268;2023-03-01T03:45:32;95666.31;;;6.26;100.00
22647;BME280;11490;42.726;23.268;2023-03-01T03:47:59;95663.50;;;6.47;100.00
22647;BME280;11490;42.726;23.268;2023-03-01T03:50:24;95666.94;;;6.41;100.00
22647;BME280;11490;42.726;23.268;2023-03-01T03:52:49;95675.28;;;6.38;100.00
22647;BME280;11490;42.726;23.268;2023-03-01T03:55:15;95659.56;;;6.24;100.00
22647;BME280;11490;42.726;23.268;2023-03-01T03:58:03;95670.59;;;6.40;100.00
22647;BME280;11490;42.726;23.268;2023-03-01T04:00:56;95670.78;;;6.32;100.00
22647;BME280;11490;42.726;23.268;2023-03-01T04:03:23;95655.19;;;5.96;100.00
22647;BME280;11490;42.726;23.268;2023-03-01T04:05:50;95657.25;;;6.07;100.00
22647;BME280;11490;42.726;23.268;2023-03-01T04:08:17;95667.88;;;6.14;100.00
22647;BME280;11490;42.726;23.268;2023-03-01T04:10:46;95670.69;;;6.06;100.00
22647;BME280;11490;42.726;23.268;2023-03-01T04:13:19;95667.69;;;6.22;100.00
22647;BME280;11490;42.726;23.268;2023-03-01T04:15:49;95673.66;;;6.50;100.00
22647;BME280;11490;42.726;23.268;2023-03-01T04:18:17;95671.81;;;6.44;100.00
22647;BME280;11490;42.726;23.268;2023-03-01T04:20:43;95673.63;;;6.24;100.00
22647;BME280;11490;42.726;23.268;2023-03-01T04:23:13;95671.97;;;6.16;100.00
22647;BME280;11490;42.726;23.268;2023-03-01T04:25:52;95677.84;;;6.12;100.00
22647;BME280;11490;42.726;23.268;2023-03-01T04:28:33;95665.22;;;6.14;100.00
22647;BME280;11490;42.726;23.268;2023-03-01T04:31:03;95670.34;;;6.22;99.47
22647;BME280;11490;42.726;23.268;2023-03-01T04:33:41;95667.88;;;6.14;99.87
22647;BME280;11490;42.726;23.268;2023-03-01T04:36:08;95665.06;;;6.22;99.22
22647;BME280;11490;42.726;23.268;2023-03-01T04:38:35;95676.47;;;6.29;98.95
22647;BME280;11490;42.726;23.268;2023-03-01T04:41:02;95675.69;;;6.35;99.23
22647;BME280;11490;42.726;23.268;2023-03-01T04:43:28;95665.84;;;6.16;100.00
22647;BME280;11490;42.726;23.268;2023-03-01T04:45:53;95617.91;;;5.98;100.00
22647;BME280;11490;42.726;23.268;2023-03-01T04:48:19;95649.94;;;6.09;100.00
22647;BME280;11490;42.726;23.268;2023-03-01T04:50:44;95648.47;;;5.94;100.00
22647;BME280;11490;42.726;23.268;2023-03-01T04:53:10;95663.75;;;6.05;100.00
22647;BME280;11490;42.726;23.268;2023-03-01T04:55:35;95658.91;;;6.15;100.00
22647;BME280;11490;42.726;23.268;2023-03-01T04:58:00;95657.28;;;6.14;100.00
22647;BME280;11490;42.726;23.268;2023-03-01T05:00:26;95655.78;;;5.92;100.00
22647;BME280;11490;42.726;23.268;2023-03-01T05:02:54;95662.50;;;5.88;100.00
22647;BME280;11490;42.726;23.268;2023-03-01T05:05:31;95657.94;;;5.81;100.00
22647;BME280;11490;42.726;23.268;2023-03-01T05:07:59;95658.34;;;5.78;100.00
22647;BME280;11490;42.726;23.268;2023-03-01T05:10:27;95654.69;;;5.79;100.00
22647;BME280;11490;42.726;23.268;2023-03-01T05:12:54;95663.63;;;5.72;100.00
22647;BME280;11490;42.726;23.268;2023-03-01T05:15:22;95653.91;;;5.86;100.00
22647;BME280;11490;42.726;23.268;2023-03-01T05:17:51;95653.56;;;5.95;100.00
22647;BME280;11490;42.726;23.268;2023-03-01T05:20:17;95658.88;;;5.95;100.00
22647;BME280;11490;42.726;23.268;2023-03-01T05:22:43;95663.75;;;6.05;100.00
22647;BME280;11490;42.726;23.268;2023-03-01T05:25:08;95657.28;;;6.14;100.00
22647;BME280;11490;42.726;23.268;2023-03-01T05:27:34;95659.75;;;6.22;100.00
22647;BME280;11490;42.726;23.268;2023-03-01T05:29:59;95651.16;;;6.07;100.00
22647;BME280;11490;42.726;23.268;2023-03-01T05:32:39;95668.22;;;5.98;100.00
22647;BME280;11490;42.726;23.268;2023-03-01T05:35:05;95655.91;;;5.84;100.00
22647;BME280;11490;42.726;23.268;2023-03-01T05:37:30;95659.56;;;5.82;100.00
22647;BME280;11490;42.726;23.268;2023-03-01T05:39:56;95662.00;;;5.77;100.00
22647;BME280;11490;42.726;23.268;2023-03-01T05:42:21;95671.09;;;6.03;100.00
22647;BME280;11490;42.726;23.268;2023-03-01T05:44:46;95669.78;;;5.86;100.00
22647;BME280;11490;42.726;23.268;2023-03-01T05:47:12;95663.63;;;5.78;100.00
22647;BME280;11490;42.726;23.268;2023-03-01T05:49:37;95676.25;;;5.76;100.00
22647;BME280;11490;42.726;23.268;2023-03-01T05:52:02;95676.97;;;5.92;100.00
22647;BME280;11490;42.726;23.268;2023-03-01T05:54:28;95693.13;;;6.10;100.00
22647;BME280;11490;42.726;23.268;2023-03-01T05:56:53;95690.66;;;6.02;100.00
22647;BME280;11490;42.726;23.268;2023-03-01T05:59:18;95693.94;;;6.10;100.00
22647;BME280;11490;42.726;23.268;2023-03-01T06:01:44;95688.25;;;6.13;100.00
22647;BME280;11490;42.726;23.268;2023-03-01T06:04:09;95695.81;;;6.23;100.00
22647;BME280;11490;42.726;23.268;2023-03-01T06:06:36;95700.81;;;5.98;100.00
22647;BME280;11490;42.726;23.268;2023-03-01T06:09:03;95706.91;;;5.92;100.00
22647;BME280;11490;42.726;23.268;2023-03-01T06:11:28;95698.50;;;5.89;100.00
22647;BME280;11490;42.726;23.268;2023-03-01T06:13:54;95708.00;;;6.11;100.00
22647;BME280;11490;42.726;23.268;2023-03-01T06:16:19;95689.81;;;5.95;100.00
22647;BME280;11490;42.726;23.268;2023-03-01T06:18:44;95711.03;;;6.08;100.00
22647;BME280;11490;42.726;23.268;2023-03-01T06:21:10;95717.50;;;5.99;100.00
22647;BME280;11490;42.726;23.268;2023-03-01T06:23:35;95686.34;;;5.66;100.00
22647;BME280;11490;42.726;23.268;2023-03-01T06:26:05;95706.38;;;5.75;100.00
22647;BME280;11490;42.726;23.268;2023-03-01T06:28:36;95682.72;;;5.67;100.00
22647;BME280;11490;42.726;23.268;2023-03-01T06:31:02;95698.69;;;5.80;100.00
22647;BME280;11490;42.726;23.268;2023-03-01T06:33:27;95707.72;;;5.93;100.00
22647;BME280;11490;42.726;23.268;2023-03-01T06:35:56;95712.56;;;5.89;100.00
22647;BME280;11490;42.726;23.268;2023-03-01T06:38:23;95713.44;;;5.68;100.00
22647;BME280;11490;42.726;23.268;2023-03-01T06:40:54;95690.91;;;5.72;100.00
22647;BME280;11490;42.726;23.268;2023-03-01T06:43:22;95705.13;;;5.71;100.00
22647;BME280;11490;42.726;23.268;2023-03-01T06:46:04;95688.78;;;5.61;100.00
22647;BME280;11490;42.726;23.268;2023-03-01T06:48:30;95689.44;;;5.70;100.00
22647;BME280;11490;42.726;23.268;2023-03-01T06:50:59;95713.91;;;6.13;100.00
22647;BME280;11490;42.726;23.268;2023-03-01T06:53:28;95667.44;;;5.63;100.00
22647;BME280;11490;42.726;23.268;2023-03-01T06:55:55;95696.25;;;5.86;100.00
22647;BME280;11490;42.726;23.268;2023-03-01T06:58:21;95695.00;;;5.81;100.00
22647;BME280;11490;42.726;23.268;2023-03-01T07:00:46;95714.78;;;5.86;100.00
22647;BME280;11490;42.726;23.268;2023-03-01T07:03:12;95712.50;;;5.82;100.00
22647;BME280;11490;42.726;23.268;2023-03-01T07:05:37;95722.00;;;6.05;100.00
22647;BME280;11490;42.726;23.268;2023-03-01T07:08:02;95697.81;;;6.08;100.00
22647;BME280;11490;42.726;23.268;2023-03-01T07:10:28;95710.69;;;6.24;100.00
22647;BME280;11490;42.726;23.268;2023-03-01T07:13:06;95724.56;;;6.26;100.00
22647;BME280;11490;42.726;23.268;2023-03-01T07:15:32;95693.53;;;6.13;100.00
22647;BME280;11490;42.726;23.268;2023-03-01T07:17:58;95711.25;;;6.13;100.00
22647;BME280;11490;42.726;23.268;2023-03-01T07:20:23;95699.47;;;6.22;100.00
22647;BME280;11490;42.726;23.268;2023-03-01T07:22:51;95708.72;;;6.46;100.00
22647;BME280;11490;42.726;23.268;2023-03-01T07:25:17;95701.75;;;6.25;100.00
22647;BME280;11490;42.726;23.268;2023-03-01T07:27:42;95698.47;;;6.23;100.00
22647;BME280;11490;42.726;23.268;2023-03-01T07:30:08;95693.81;;;6.32;100.00
22647;BME280;11490;42.726;23.268;2023-03-01T07:32:34;95689.16;;;6.40;100.00
22647;BME280;11490;42.726;23.268;2023-03-01T07:35:03;95695.25;;;6.34;100.00
22647;BME280;11490;42.726;23.268;2023-03-01T07:37:29;95693.63;;;6.33;100.00
22647;BME280;11490;42.726;23.268;2023-03-01T07:39:54;95694.03;;;6.37;100.00
22647;BME280;11490;42.726;23.268;2023-03-01T07:42:19;95686.72;;;6.45;100.00
22647;BME280;11490;42.726;23.268;2023-03-01T07:44:48;95692.00;;;6.45;100.00
22647;BME280;11490;42.726;23.268;2023-03-01T07:47:13;95686.25;;;6.22;100.00
22647;BME280;11490;42.726;23.268;2023-03-01T07:49:39;95686.19;;;6.09;100.00
22647;BME280;11490;42.726;23.268;2023-03-01T07:52:04;95686.03;;;6.17;100.00
22647;BME280;11490;42.726;23.268;2023-03-01T07:54:30;95687.13;;;6.42;100.00
22647;BME280;11490;42.726;23.268;2023-03-01T07:56:56;95680.31;;;6.20;100.00
22647;BME280;11490;42.726;23.268;2023-03-01T07:59:26;95664.88;;;6.30;100.00
22647;BME280;11490;42.726;23.268;2023-03-01T08:01:55;95691.63;;;6.48;100.00
22647;BME280;11490;42.726;23.268;2023-03-01T08:04:20;95687.38;;;6.74;100.00
22647;BME280;11490;42.726;23.268;2023-03-01T08:06:46;95663.88;;;6.44;100.00
22647;BME280;11490;42.726;23.268;2023-03-01T08:09:12;95635.78;;;6.56;100.00
22647;BME280;11490;42.726;23.268;2023-03-01T08:11:37;95697.00;;;7.01;100.00
22647;BME280;11490;42.726;23.268;2023-03-01T08:14:03;95686.16;;;6.89;99.39
22647;BME280;11490;42.726;23.268;2023-03-01T08:16:29;95659.84;;;6.75;99.68
22647;BME280;11490;42.726;23.268;2023-03-01T08:19:07;95674.94;;;6.68;100.00
22647;BME280;11490;42.726;23.268;2023-03-01T08:21:36;95666.34;;;6.59;99.95
22647;BME280;11490;42.726;23.268;2023-03-01T08:24:42;95638.44;;;6.56;99.99
22647;BME280;11490;42.726;23.268;2023-03-01T08:30:18;95620.91;;;6.49;100.00
22647;BME280;11490;42.726;23.268;2023-03-01T08:33:22;95642.13;;;6.95;99.00
22647;BME280;11490;42.726;23.268;2023-03-01T08:36:13;95668.03;;;6.93;98.04
22647;BME280;11490;42.726;23.268;2023-03-01T08:38:47;95687.63;;;7.12;98.72
22647;BME280;11490;42.726;23.268;2023-03-01T08:41:20;95667.59;;;7.22;97.42
22647;BME280;11490;42.726;23.268;2023-03-01T08:46:53;95680.50;;;7.12;98.13
22647;BME280;11490;42.726;23.268;2023-03-01T08:49:20;95623.97;;;6.85;98.37
22647;BME280;11490;42.726;23.268;2023-03-01T08:51:58;95626.41;;;7.00;97.83
22647;BME280;11490;42.726;23.268;2023-03-01T08:54:42;95650.06;;;7.21;97.68
22647;BME280;11490;42.726;23.268;2023-03-01T08:57:23;95650.47;;;7.31;97.39
22647;BME280;11490;42.726;23.268;2023-03-01T09:00:00;95686.75;;;7.44;95.60
22647;BME280;11490;42.726;23.268;2023-03-01T09:02:33;95645.16;;;7.05;96.83
22647;BME280;11490;42.726;23.268;2023-03-01T09:05:09;95624.78;;;7.19;96.71
22647;BME280;11490;42.726;23.268;2023-03-01T09:07:35;95671.88;;;7.37;96.15
22647;BME280;11490;42.726;23.268;2023-03-01T09:10:01;95631.28;;;7.29;96.18
22647;BME280;11490;42.726;23.268;2023-03-01T09:12:30;95685.91;;;7.70;95.58
22647;BME280;11490;42.726;23.268;2023-03-01T09:14:58;95676.53;;;7.74;93.28
22647;BME280;11490;42.726;23.268;2023-03-01T09:17:23;95670.56;;;7.85;92.64
22647;BME280;11490;42.726;23.268;2023-03-01T09:19:49;95668.13;;;7.77;91.36
22647;BME280;11490;42.726;23.268;2023-03-01T09:22:17;95657.34;;;7.59;92.49
22647;BME280;11490;42.726;23.268;2023-03-01T09:24:54;95636.09;;;7.59;92.01
22647;BME280;11490;42.726;23.268;2023-03-01T09:27:22;95656.09;;;7.68;91.42
22647;BME280;11490;42.726;23.268;2023-03-01T09:29:47;95646.66;;;7.85;91.81
22647;BME280;11490;42.726;23.268;2023-03-01T09:32:16;95642.19;;;8.24;91.57
22647;BME280;11490;42.726;23.268;2023-03-01T09:34:42;95678.06;;;8.01;90.26
22647;BME280;11490;42.726;23.268;2023-03-01T09:37:26;95663.09;;;8.13;91.62
22647;BME280;11490;42.726;23.268;2023-03-01T09:39:52;95638.03;;;7.96;90.29
22647;BME280;11490;42.726;23.268;2023-03-01T09:42:18;95647.75;;;8.16;90.74
22647;BME280;11490;42.726;23.268;2023-03-01T09:47:21;95656.00;;;8.01;90.53
22647;BME280;11490;42.726;23.268;2023-03-01T09:53:02;95655.28;;;7.74;91.38
22647;BME280;11490;42.726;23.268;2023-03-01T09:55:43;95654.31;;;8.06;92.14
22647;BME280;11490;42.726;23.268;2023-03-01T10:01:22;95641.44;;;8.10;91.40
22647;BME280;11490;42.726;23.268;2023-03-01T10:04:05;95621.66;;;7.99;91.03
22647;BME280;11490;42.726;23.268;2023-03-01T10:06:45;95617.94;;;8.07;90.42
22647;BME280;11490;42.726;23.268;2023-03-01T10:09:16;95639.50;;;8.37;89.46
22647;BME280;11490;42.726;23.268;2023-03-01T10:11:52;95591.34;;;8.13;88.84
22647;BME280;11490;42.726;23.268;2023-03-01T10:14:54;95631.25;;;8.45;89.42
22647;BME280;11490;42.726;23.268;2023-03-01T10:17:27;95645.53;;;8.57;87.05
22647;BME280;11490;42.726;23.268;2023-03-01T10:20:09;95625.94;;;8.45;87.30
22647;BME280;11490;42.726;23.268;2023-03-01T10:22:41;95630.84;;;8.48;87.59
22647;BME280;11490;42.726;23.268;2023-03-01T10:25:11;95630.69;;;8.36;87.34
22647;BME280;11490;42.726;23.268;2023-03-01T10:28:02;95611.81;;;8.06;88.61
22647;BME280;11490;42.726;23.268;2023-03-01T10:30:42;95605.16;;;7.97;89.15
22647;BME280;11490;42.726;23.268;2023-03-01T10:33:40;95631.81;;;8.16;89.34
22647;BME280;11490;42.726;23.268;2023-03-01T10:36:06;95623.28;;;8.45;88.61
22647;BME280;11490;42.726;23.268;2023-03-01T10:38:56;95627.09;;;9.12;87.11
22647;BME280;11490;42.726;23.268;2023-03-01T10:41:25;95619.38;;;8.79;84.53
22647;BME280;11490;42.726;23.268;2023-03-01T10:43:56;95631.00;;;8.84;86.17
22647;BME280;11490;42.726;23.268;2023-03-01T10:46:37;95626.84;;;8.95;85.30
22647;BME280;11490;42.726;23.268;2023-03-01T10:51:44;95621.47;;;9.02;85.08
22647;BME280;11490;42.726;23.268;2023-03-01T10:54:25;95622.28;;;8.46;86.16
22647;BME280;11490;42.726;23.268;2023-03-01T10:57:04;95622.09;;;8.72;86.26
22647;BME280;11490;42.726;23.268;2023-03-01T10:59:36;95607.50;;;8.57;85.71
22647;BME280;11490;42.726;23.268;2023-03-01T11:02:27;95590.84;;;8.36;86.58
22647;BME280;11490;42.726;23.268;2023-03-01T11:05:15;95601.41;;;8.49;86.33
22647;BME280;11490;42.726;23.268;2023-03-01T11:07:58;95603.75;;;8.64;85.97
22647;BME280;11490;42.726;23.268;2023-03-01T11:10:32;95624.50;;;8.80;85.62
22647;BME280;11490;42.726;23.268;2023-03-01T11:13:14;95599.09;;;8.84;88.07
22647;BME280;11490;42.726;23.268;2023-03-01T11:15:41;95580.84;;;8.63;88.42
22647;BME280;11490;42.726;23.268;2023-03-01T11:18:20;95617.34;;;9.06;87.91
22647;BME280;11490;42.726;23.268;2023-03-01T11:20:46;95604.50;;;9.21;87.88
22647;BME280;11490;42.726;23.268;2023-03-01T11:23:15;95605.16;;;8.92;88.43
22647;BME280;11490;42.726;23.268;2023-03-01T11:25:51;95600.78;;;8.79;89.02
22647;BME280;11490;42.726;23.268;2023-03-01T11:28:21;95586.31;;;8.68;88.16
22647;BME280;11490;42.726;23.268;2023-03-01T11:30:54;95598.59;;;8.69;89.16
22647;BME280;11490;42.726;23.268;2023-03-01T11:33:53;95601.84;;;8.71;88.71
22647;BME280;11490;42.726;23.268;2023-03-01T11:38:48;95593.50;;;8.93;88.92
22647;BME280;11490;42.726;23.268;2023-03-01T11:41:19;95587.75;;;8.96;89.45
22647;BME280;11490;42.726;23.268;2023-03-01T11:46:35;95569.25;;;8.82;87.84
22647;BME280;11490;42.726;23.268;2023-03-01T11:55:05;95560.75;;;8.67;89.23
22647;BME280;11490;42.726;23.268;2023-03-01T12:11:39;95557.41;;;8.78;88.60
22647;BME280;11490;42.726;23.268;2023-03-01T12:24:59;95531.56;;;8.85;87.34
22647;BME280;11490;42.726;23.268;2023-03-01T12:36:02;95488.66;;;8.82;86.65
22647;BME280;11490;42.726;23.268;2023-03-01T12:38:37;95523.63;;;9.22;87.16
22647;BME280;11490;42.726;23.268;2023-03-01T12:44:12;95532.22;;;9.42;85.76
22647;BME280;11490;42.726;23.268;2023-03-01T12:49:59;95528.88;;;9.65;84.75
22647;BME280;11490;42.726;23.268;2023-03-01T12:52:33;95535.53;;;9.74;85.54
22647;BME280;11490;42.726;23.268;2023-03-01T12:55:02;95509.00;;;9.13;85.06
22647;BME280;11490;42.726;23.268;2023-03-01T13:00:32;95546.31;;;9.24;84.92
22647;BME280;11490;42.726;23.268;2023-03-01T13:06:15;95528.06;;;9.46;84.93
22647;BME280;11490;42.726;23.268;2023-03-01T13:08:52;95536.47;;;9.61;84.70
22647;BME280;11490;42.726;23.268;2023-03-01T13:11:22;95526.81;;;9.49;84.09
22647;BME280;11490;42.726;23.268;2023-03-01T13:13:49;95533.09;;;9.54;84.75
22647;BME280;11490;42.726;23.268;2023-03-01T13:19:13;95541.59;;;9.63;84.64
22647;BME280;11490;42.726;23.268;2023-03-01T13:21:41;95534.53;;;9.14;86.00
22647;BME280;11490;42.726;23.268;2023-03-01T13:24:37;95528.44;;;9.13;86.56
22647;BME280;11490;42.726;23.268;2023-03-01T13:32:39;95538.13;;;9.26;86.94
22647;BME280;11490;42.726;23.268;2023-03-01T13:37:41;95509.78;;;8.95;88.40
22647;BME280;11490;42.726;23.268;2023-03-01T13:42:43;95533.94;;;8.94;87.79
22647;BME280;11490;42.726;23.268;2023-03-01T13:48:08;95512.59;;;9.00;88.71
22647;BME280;11490;42.726;23.268;2023-03-01T13:51:05;95532.38;;;9.29;88.47
22647;BME280;11490;42.726;23.268;2023-03-01T13:53:43;95518.44;;;9.09;87.67
22647;BME280;11490;42.726;23.268;2023-03-01T13:56:27;95508.09;;;8.82;88.16
22647;BME280;11490;42.726;23.268;2023-03-01T14:02:11;95505.09;;;8.72;89.25
22647;BME280;11490;42.726;23.268;2023-03-01T14:07:53;95513.78;;;8.61;90.12
22647;BME280;11490;42.726;23.268;2023-03-01T14:10:54;95527.81;;;8.93;89.54
22647;BME280;11490;42.726;23.268;2023-03-01T14:18:47;95509.97;;;8.75;89.80
22647;BME280;11490;42.726;23.268;2023-03-01T14:21:17;95515.84;;;9.02;89.71
22647;BME280;11490;42.726;23.268;2023-03-01T14:23:43;95476.13;;;8.64;89.59
22647;BME280;11490;42.726;23.268;2023-03-01T14:26:09;95521.56;;;9.06;89.84
22647;BME280;11490;42.726;23.268;2023-03-01T14:28:38;95514.28;;;8.95;90.11
22647;BME280;11490;42.726;23.268;2023-03-01T14:33:55;95521.66;;;8.93;90.04
22647;BME280;11490;42.726;23.268;2023-03-01T14:36:26;95513.09;;;8.91;90.85
22647;BME280;11490;42.726;23.268;2023-03-01T14:38:53;95507.41;;;8.87;90.94
22647;BME280;11490;42.726;23.268;2023-03-01T14:41:21;95519.75;;;8.81;91.09
22647;BME280;11490;42.726;23.268;2023-03-01T14:43:52;95500.53;;;8.79;91.69
22647;BME280;11490;42.726;23.268;2023-03-01T14:46:38;95506.34;;;8.70;91.79
22647;BME280;11490;42.726;23.268;2023-03-01T14:51:30;95498.00;;;8.41;93.22
22647;BME280;11490;42.726;23.268;2023-03-01T14:53:56;95516.69;;;8.53;93.76
22647;BME280;11490;42.726;23.268;2023-03-01T14:56:22;95481.50;;;8.58;93.10
22647;BME280;11490;42.726;23.268;2023-03-01T14:58:52;95520.94;;;8.29;93.77
22647;BME280;11490;42.726;23.268;2023-03-01T15:01:19;95483.47;;;8.13;94.77
22647;BME280;11490;42.726;23.268;2023-03-01T15:03:47;95492.13;;;8.01;94.40
22647;BME280;11490;42.726;23.268;2023-03-01T15:06:22;95458.72;;;7.87;94.60
22647;BME280;11490;42.726;23.268;2023-03-01T15:08:50;95499.94;;;8.28;94.58